Terminal Aerodrome Forecast
Issued by NWS Bismarck, ND

Home | Current Version | Previous Version | Text Only | Print | Product List | Glossary Off
Versions: 1 2 3 4 5 6 7 8 9 10 11 12 13 14 15 16

000
FTUS43 KBIS 160500
TAFBIS
TAF
KBIS 160528Z 1606/1706 VRB05KT P6SM SCT070
     FM160900 33007KT P6SM SCT060 BKN080
     FM161500 36012G18KT P6SM BKN080
     FM162100 34007KT P6SM SCT100
     FM170100 VRB03KT P6SM SKC=

USA.gov is the U.S. government's official web portal to all federal, state and local government web resources and services.